createdAt,value
2018-10-07T00:02:01.125Z,13.8
2018-10-07T00:07:03.304Z,13.8
2018-10-07T00:12:05.659Z,13.7
2018-10-07T00:17:07.992Z,13.7
2018-10-07T00:22:10.297Z,13.7
2018-10-07T00:27:12.567Z,13.7
2018-10-07T00:32:14.821Z,13.6
2018-10-07T00:37:17.192Z,13.4
2018-10-07T00:42:19.352Z,13.3
2018-10-07T00:47:21.784Z,13.2
2018-10-07T00:52:24.143Z,13
2018-10-07T00:57:26.296Z,13
2018-10-07T01:02:28.589Z,12.8
2018-10-07T01:07:30.956Z,12.7
2018-10-07T01:12:33.206Z,12.7
2018-10-07T01:17:35.469Z,12.6
2018-10-07T01:22:38.275Z,12.5
2018-10-07T01:27:40.102Z,12.4
2018-10-07T01:32:42.286Z,12.4
2018-10-07T01:37:44.729Z,12.2
2018-10-07T01:42:47.038Z,12.2
2018-10-07T01:47:49.218Z,12.2
2018-10-07T01:52:51.535Z,12.1
2018-10-07T01:57:53.822Z,12
2018-10-07T02:02:56.165Z,12
2018-10-07T02:07:58.394Z,12
2018-10-07T02:13:00.838Z,11.9
2018-10-07T02:18:02.991Z,11.9
2018-10-07T02:23:05.438Z,11.8
2018-10-07T02:28:07.619Z,11.8
2018-10-07T02:33:09.855Z,11.8
2018-10-07T02:38:12.152Z,11.9
2018-10-07T02:43:14.381Z,11.8
2018-10-07T02:48:16.823Z,11.7
2018-10-07T02:53:19.113Z,11.7
2018-10-07T02:58:23.092Z,11.6
2018-10-07T03:03:23.721Z,11.5
2018-10-07T03:08:25.956Z,11.5
2018-10-07T03:13:28.290Z,11.5
2018-10-07T03:18:30.553Z,11.4
2018-10-07T03:23:32.873Z,11.4
2018-10-07T03:28:35.120Z,11.4
2018-10-07T03:33:37.311Z,11.3
2018-10-07T03:38:39.709Z,11.2
2018-10-07T03:43:41.990Z,11.2
2018-10-07T03:48:44.290Z,11.2
2018-10-07T03:53:46.634Z,11.2
2018-10-07T03:58:48.835Z,11.2
2018-10-07T04:03:51.210Z,11.1
2018-10-07T04:08:53.407Z,11.1
2018-10-07T04:13:55.827Z,11.1
2018-10-07T04:18:58.067Z,11.1
2018-10-07T04:24:00.295Z,11.1
2018-10-07T04:29:04.068Z,11.1
2018-10-07T04:34:04.999Z,11
2018-10-07T04:39:07.243Z,11
2018-10-07T04:44:09.572Z,11
2018-10-07T04:49:11.966Z,11
2018-10-07T04:54:14.031Z,11
2018-10-07T04:59:16.351Z,10.9
2018-10-07T05:04:18.771Z,10.9
2018-10-07T05:09:21.010Z,10.9
2018-10-07T05:14:23.359Z,10.9
2018-10-07T05:19:25.537Z,10.9
2018-10-07T05:24:27.959Z,10.9
2018-10-07T05:29:30.181Z,10.9
2018-10-07T05:34:32.877Z,10.9
2018-10-07T05:39:34.824Z,10.9
2018-10-07T05:44:37.144Z,10.9
2018-10-07T05:49:39.412Z,10.9
2018-10-07T05:54:41.608Z,10.9
2018-10-07T05:59:43.903Z,10.9
2018-10-07T06:04:46.379Z,10.9
2018-10-07T06:14:50.809Z,10.8
2018-10-07T06:19:53.072Z,10.8
2018-10-07T06:24:55.477Z,10.8
2018-10-07T06:29:57.838Z,10.8
2018-10-07T06:35:00.025Z,10.8
2018-10-07T06:40:02.348Z,10.8
2018-10-07T06:45:04.682Z,10.8
2018-10-07T06:50:06.908Z,10.8
2018-10-07T06:55:09.181Z,10.8
2018-10-07T07:00:11.466Z,10.8
2018-10-07T07:05:13.899Z,10.7
2018-10-07T07:10:16.204Z,10.7
2018-10-07T07:15:18.348Z,10.7
2018-10-07T07:20:20.798Z,10.7
2018-10-07T07:25:22.957Z,10.7
2018-10-07T07:30:25.355Z,10.8
2018-10-07T07:35:27.690Z,10.8
2018-10-07T07:40:29.844Z,10.9
2018-10-07T07:45:32.250Z,10.9
2018-10-07T07:50:34.454Z,10.9
2018-10-07T07:55:36.807Z,11
2018-10-07T08:00:39.053Z,11
2018-10-07T08:05:41.470Z,11
2018-10-07T08:10:43.679Z,11
2018-10-07T08:15:45.913Z,11.1
2018-10-07T08:20:48.313Z,11.1
2018-10-07T08:25:50.519Z,11.3
2018-10-07T08:30:52.723Z,11.6
2018-10-07T08:35:55.009Z,11.7
2018-10-07T08:40:57.391Z,12.1
2018-10-07T08:45:59.647Z,12.2
2018-10-07T08:51:01.966Z,12.5
2018-10-07T08:56:04.354Z,12.6
2018-10-07T09:01:06.451Z,12.9
2018-10-07T09:06:08.764Z,13.1
2018-10-07T09:11:11.231Z,13.2
2018-10-07T09:16:13.529Z,13.3
2018-10-07T09:21:15.640Z,13.4
2018-10-07T09:26:18.013Z,13.3
2018-10-07T09:31:20.257Z,13.3
2018-10-07T09:36:22.573Z,13.5
2018-10-07T09:41:24.885Z,13.6
2018-10-07T09:46:27.203Z,13.4
2018-10-07T09:51:29.516Z,13.5
2018-10-07T09:56:31.721Z,13.8
2018-10-07T10:01:34.069Z,14.2
2018-10-07T10:06:36.418Z,13.9
2018-10-07T10:11:38.697Z,14
2018-10-07T10:16:40.963Z,14.4
2018-10-07T10:21:43.185Z,14.1
2018-10-07T10:31:47.860Z,13.7
2018-10-07T10:36:50.560Z,13.7
2018-10-07T10:41:52.504Z,14.3
2018-10-07T10:46:54.609Z,15.1
2018-10-07T10:51:56.954Z,14.9
2018-10-07T10:56:59.288Z,14
2018-10-07T11:02:01.647Z,13.8
2018-10-07T11:07:03.869Z,14.1
2018-10-07T11:12:07.387Z,14.4
2018-10-07T11:17:08.477Z,15.2
2018-10-07T11:22:10.758Z,14.5
2018-10-07T11:27:13.091Z,15.2
2018-10-07T11:32:15.345Z,16
2018-10-07T11:37:17.612Z,15.5
2018-10-07T11:42:19.924Z,14.9
2018-10-07T11:47:22.246Z,14.8
2018-10-07T11:52:24.452Z,16.1
2018-10-07T11:57:26.820Z,16.5
2018-10-07T12:02:29.159Z,17.1
2018-10-07T12:07:31.314Z,17.6
2018-10-07T12:12:33.630Z,18.299999
2018-10-07T12:17:36.074Z,18.6
2018-10-07T12:22:38.295Z,18.5
2018-10-07T12:27:40.574Z,18.1
2018-10-07T12:32:42.878Z,17.700001
2018-10-07T12:37:45.154Z,18
2018-10-07T12:42:47.480Z,17.1
2018-10-07T12:47:49.776Z,17.6
2018-10-07T12:52:52.043Z,17.5
2018-10-07T12:57:54.271Z,17.799999
2018-10-07T13:02:56.566Z,18.1
2018-10-07T13:07:58.987Z,18.200001
2018-10-07T13:13:01.196Z,18.4
2018-10-07T13:18:03.499Z,17.5
2018-10-07T13:23:05.736Z,18.1
2018-10-07T13:28:08.083Z,18.5
2018-10-07T13:33:10.409Z,17.4
2018-10-07T13:38:12.772Z,16.6
2018-10-07T13:43:14.972Z,16.1
2018-10-07T13:48:17.234Z,16.299999
2018-10-07T13:53:19.564Z,16.299999
2018-10-07T13:58:21.923Z,16.1
2018-10-07T14:03:24.296Z,16.4
2018-10-07T14:08:26.502Z,16.5
2018-10-07T14:13:28.838Z,16.6
2018-10-07T14:18:31.133Z,16.299999
2018-10-07T14:23:33.357Z,16.1
2018-10-07T14:28:35.664Z,16
2018-10-07T14:33:37.920Z,15.8
2018-10-07T14:38:40.211Z,15.7
2018-10-07T14:43:42.530Z,15.5
2018-10-07T14:48:44.754Z,15.5
2018-10-07T14:53:47.092Z,15.4
2018-10-07T14:58:49.525Z,15.4
2018-10-07T15:03:51.736Z,15.4
2018-10-07T15:08:54.066Z,15.3
2018-10-07T15:13:56.221Z,15.2
2018-10-07T15:18:58.567Z,15
2018-10-07T15:24:00.810Z,14.9
2018-10-07T15:29:03.141Z,14.9
2018-10-07T15:34:05.508Z,14.8
2018-10-07T15:39:07.699Z,14.7
2018-10-07T15:44:10.035Z,14.5
2018-10-07T15:49:12.302Z,14.3
2018-10-07T15:54:14.659Z,14.2
2018-10-07T15:59:16.921Z,14.2
2018-10-07T16:04:19.179Z,14.2
2018-10-07T16:09:21.587Z,14.2
2018-10-07T16:14:23.911Z,14.3
2018-10-07T16:19:26.104Z,14.2
2018-10-07T16:24:28.486Z,14.1
2018-10-07T16:29:30.717Z,14
2018-10-07T16:34:33.102Z,13.9
2018-10-07T16:39:35.274Z,13.7
2018-10-07T16:44:37.588Z,13.4
2018-10-07T16:49:39.893Z,13.2
2018-10-07T16:54:42.190Z,13
2018-10-07T16:59:44.459Z,12.8
2018-10-07T17:04:46.915Z,12.7
2018-10-07T17:09:49.218Z,12.4
2018-10-07T17:14:51.336Z,12.3
2018-10-07T17:19:53.624Z,12.3
2018-10-07T17:24:55.850Z,12.2
2018-10-07T17:29:58.161Z,12
2018-10-07T17:35:00.545Z,11.8
2018-10-07T17:40:02.861Z,11.6
2018-10-07T17:45:05.122Z,11.3
2018-10-07T17:50:07.404Z,11.1
2018-10-07T18:00:12.030Z,10.9
2018-10-07T18:05:14.295Z,10.8
2018-10-07T18:10:16.629Z,10.7
2018-10-07T18:15:19.010Z,10.6
2018-10-07T18:20:21.268Z,10.4
2018-10-07T18:25:23.444Z,10.3
2018-10-07T18:30:25.743Z,10.1
2018-10-07T18:35:28.065Z,10
2018-10-07T18:40:30.295Z,9.9
2018-10-07T18:45:34.095Z,9.8
2018-10-07T18:50:34.964Z,9.7
2018-10-07T18:55:37.309Z,9.7
2018-10-07T19:00:39.603Z,9.6
2018-10-07T19:05:41.740Z,9.6
2018-10-07T19:10:44.233Z,9.5
2018-10-07T19:15:46.432Z,9.4
2018-10-07T19:20:48.800Z,9.3
2018-10-07T19:25:50.959Z,9.3
2018-10-07T19:35:55.655Z,9
2018-10-07T19:40:57.778Z,8.9
2018-10-07T19:46:00.093Z,8.8
2018-10-07T19:51:02.589Z,8.7
2018-10-07T19:56:04.693Z,8.6
2018-10-07T20:01:08.114Z,8.5
2018-10-07T20:06:09.406Z,8.5
2018-10-07T20:11:11.573Z,8.4
2018-10-07T20:16:13.940Z,8.4
2018-10-07T20:21:16.360Z,8.3
2018-10-07T20:26:18.530Z,8.3
2018-10-07T20:31:20.807Z,8.2
2018-10-07T20:36:23.127Z,8.3
2018-10-07T20:41:25.356Z,8.2
2018-10-07T20:46:27.645Z,8.1
2018-10-07T20:51:29.960Z,8.1
2018-10-07T20:56:32.373Z,8
2018-10-07T21:01:34.600Z,7.9
2018-10-07T21:06:46.043Z,7.9
2018-10-07T21:11:39.127Z,7.8
2018-10-07T21:16:41.416Z,7.8
2018-10-07T21:21:43.762Z,7.8
2018-10-07T21:26:46.109Z,7.7
2018-10-07T21:31:48.346Z,7.7
2018-10-07T21:36:50.660Z,7.7
2018-10-07T21:41:53.001Z,7.6
2018-10-07T21:46:55.240Z,7.5
2018-10-07T21:51:57.448Z,7.4
2018-10-07T21:57:01.061Z,7.4
2018-10-07T22:02:02.110Z,7.3
2018-10-07T22:07:04.479Z,7.3
2018-10-07T22:12:06.636Z,7.2
2018-10-07T22:17:09.010Z,7.2
2018-10-07T22:22:11.336Z,7.2
2018-10-07T22:27:13.595Z,7.2
2018-10-07T22:32:15.900Z,7.1
2018-10-07T22:37:18.155Z,7.1
2018-10-07T22:42:20.421Z,7
2018-10-07T22:47:22.773Z,6.9
2018-10-07T22:52:25.164Z,6.9
2018-10-07T22:57:27.322Z,6.8
2018-10-07T23:02:29.548Z,6.8
2018-10-07T23:07:32.019Z,6.7
2018-10-07T23:12:34.210Z,6.7
2018-10-07T23:17:36.530Z,6.7
2018-10-07T23:22:38.801Z,6.6
2018-10-07T23:27:46.998Z,6.7
2018-10-07T23:32:47.459Z,6.6
2018-10-07T23:37:47.395Z,6.5
2018-10-07T23:42:48.073Z,6.4
2018-10-07T23:47:50.222Z,6.3
2018-10-07T23:52:52.624Z,6.2
2018-10-07T23:57:54.828Z,6.2
